Time;durP1;ratioP1;P1;durP2;ratioP2;P2;SDS_P1;SDS_P2;PMS_P1;PMS_P2;Temp;Humidity;BMP_temperature;BMP_pressure;BME280_temperature;BME280_humidity;BME280_pressure;Samples;Min_cycle;Max_cycle;Signal;HPM_P1;HPM_P2
2021/06/22 00:01:11;;;;;;;;;1.25;1.25;;;;;19.64;63.65;100710.09;4973657;28;45375;-69
2021/06/22 00:03:36;;;;;;;;;0.50;0.50;;;;;19.63;63.82;100711.03;4968686;28;45494;-69
2021/06/22 00:06:02;;;;;;;;;0.00;0.00;;;;;19.56;64.21;100711.50;4972830;28;45404;-69
2021/06/22 00:08:27;;;;;;;;;0.75;0.75;;;;;19.56;64.28;100713.31;4973325;28;46497;-69
2021/06/22 00:10:53;;;;;;;;;1.00;0.00;;;;;19.55;64.15;100711.66;4973122;28;45471;-69
2021/06/22 00:13:18;;;;;;;;;0.00;0.00;;;;;19.52;64.52;100715.41;4973185;28;45536;-70
2021/06/22 00:15:44;;;;;;;;;0.50;0.00;;;;;19.50;65.00;100713.84;4972093;28;45463;-70
2021/06/22 00:18:10;;;;;;;;;0.00;0.00;;;;;19.54;65.02;100725.94;4973241;28;45435;-69
2021/06/22 00:20:35;;;;;;;;;0.00;0.00;;;;;19.52;65.49;100722.53;4973606;28;45413;-69
2021/06/22 00:23:02;;;;;;;;;0.00;0.00;;;;;19.56;65.42;100727.50;4971743;28;45480;-69
2021/06/22 00:25:28;;;;;;;;;0.00;0.00;;;;;19.56;65.78;100724.84;4973170;28;45475;-69
2021/06/22 00:27:53;;;;;;;;;2.00;1.00;;;;;19.61;66.35;100729.00;4972723;28;45823;-69
2021/06/22 00:30:20;;;;;;;;;1.00;1.00;;;;;19.62;66.28;100726.19;4974163;28;45444;-69
2021/06/22 00:32:46;;;;;;;;;1.00;1.00;;;;;19.62;66.13;100714.69;4976601;28;45449;-69
2021/06/22 00:35:13;;;;;;;;;0.00;0.00;;;;;19.64;65.79;100715.44;4976844;28;45421;-69
2021/06/22 00:37:42;;;;;;;;;0.25;0.25;;;;;19.67;65.74;100721.34;4974702;28;46879;-69
2021/06/22 00:40:13;;;;;;;;;2.00;0.00;;;;;19.67;65.76;100723.16;4975464;28;45374;-69
2021/06/22 00:42:42;;;;;;;;;0.75;0.75;;;;;19.60;66.12;100712.16;4976007;28;45446;-69
2021/06/22 00:45:09;;;;;;;;;1.25;0.50;;;;;19.62;66.48;100720.84;4974673;28;45716;-69
2021/06/22 00:47:34;;;;;;;;;0.50;0.50;;;;;19.58;66.40;100715.91;4976588;28;46801;-69
2021/06/22 00:50:00;;;;;;;;;1.00;1.00;;;;;19.56;66.56;100719.50;4973908;28;45371;-69
2021/06/22 00:52:27;;;;;;;;;2.00;1.00;;;;;19.55;67.06;100727.63;4975058;28;45745;-69
2021/06/22 00:54:54;;;;;;;;;1.75;1.25;;;;;19.52;67.13;100715.41;4976712;28;45348;-69
2021/06/22 00:57:20;;;;;;;;;3.00;1.00;;;;;19.50;67.03;100725.34;4975748;28;46591;-69
2021/06/22 00:59:46;;;;;;;;;1.50;0.75;;;;;19.48;66.64;100729.97;4974922;28;45355;-69
2021/06/22 01:02:12;;;;;;;;;1.50;1.50;;;;;19.45;66.93;100727.53;4976371;28;45494;-69
2021/06/22 01:04:37;;;;;;;;;1.00;1.00;;;;;19.47;66.02;100736.25;4976607;28;45371;-69
2021/06/22 01:07:04;;;;;;;;;2.00;1.00;;;;;19.51;66.27;100737.69;4975162;28;45498;-69
2021/06/22 01:09:30;;;;;;;;;0.75;0.75;;;;;19.54;66.30;100725.94;4974720;28;45523;-69
2021/06/22 01:11:58;;;;;;;;;1.00;1.00;;;;;19.57;66.24;100725.69;4979962;28;45320;-69
2021/06/22 01:14:27;;;;;;;;;0.75;0.75;;;;;19.55;66.54;100731.16;4977158;28;45684;-69
2021/06/22 01:16:54;;;;;;;;;0.75;0.75;;;;;19.58;66.64;100732.72;4989029;28;48547;-69
2021/06/22 01:19:20;;;;;;;;;0.00;0.00;;;;;19.58;66.20;100735.41;4990212;28;45407;-69
2021/06/22 01:21:46;;;;;;;;;2.25;1.00;;;;;19.58;66.52;100724.75;4973650;28;45563;-69
2021/06/22 01:24:12;;;;;;;;;2.50;1.50;;;;;19.61;66.39;100710.31;4975533;28;45736;-69
2021/06/22 01:26:45;;;;;;;;;2.00;2.00;;;;;19.60;65.97;100719.31;4975934;28;46208;-69
2021/06/22 01:29:11;;;;;;;;;1.25;1.25;;;;;19.57;66.49;100723.00;4975026;28;45602;-69
2021/06/22 01:31:38;;;;;;;;;2.25;2.25;;;;;19.56;66.41;100713.31;4974418;28;46819;-69
2021/06/22 01:34:03;;;;;;;;;2.00;2.00;;;;;19.56;66.37;100706.19;4974427;28;47473;-69
2021/06/22 01:36:31;;;;;;;;;4.25;4.00;;;;;19.55;66.41;100703.66;4973926;28;46071;-69
2021/06/22 01:38:57;;;;;;;;;1.75;1.75;;;;;19.50;66.20;100698.69;4974885;28;45711;-69
2021/06/22 01:41:23;;;;;;;;;4.00;2.00;;;;;19.45;66.59;100700.03;4975352;28;45545;-69
2021/06/22 01:43:49;;;;;;;;;2.75;2.75;;;;;19.42;66.79;100700.25;4975944;28;46071;-69
2021/06/22 01:46:14;;;;;;;;;3.50;3.25;;;;;19.36;66.50;100698.94;4974857;28;45584;-69
2021/06/22 01:48:40;;;;;;;;;3.00;3.00;;;;;19.33;66.59;100699.22;4974536;28;45375;-69
2021/06/22 01:51:05;;;;;;;;;6.75;3.75;;;;;19.36;66.76;100700.75;4973623;28;45485;-70
2021/06/22 01:53:31;;;;;;;;;3.25;3.25;;;;;19.34;66.97;100692.91;4976101;28;45538;-70
2021/06/22 01:55:57;;;;;;;;;5.50;3.00;;;;;19.34;66.53;100684.06;4973829;28;47340;-69
2021/06/22 01:58:22;;;;;;;;;2.75;2.00;;;;;19.33;66.71;100683.22;4975154;28;45562;-66
2021/06/22 02:00:53;;;;;;;;;4.25;3.00;;;;;19.30;66.77;100684.28;4975352;28;45625;-66
2021/06/22 02:03:20;;;;;;;;;2.50;2.50;;;;;19.37;67.12;100694.44;4974891;28;45618;-66
2021/06/22 02:05:48;;;;;;;;;3.00;3.00;;;;;19.38;67.04;100696.19;4972962;28;46668;-66
2021/06/22 02:08:18;;;;;;;;;2.00;2.00;;;;;19.37;66.79;100697.13;4975778;28;45613;-67
2021/06/22 02:10:44;;;;;;;;;2.00;2.00;;;;;19.37;66.93;100705.13;4973600;28;45400;-66
2021/06/22 02:13:10;;;;;;;;;1.25;1.25;;;;;19.39;66.96;100706.69;4973857;28;45653;-66
2021/06/22 02:15:36;;;;;;;;;2.25;2.25;;;;;19.42;66.92;100709.13;4973690;28;48053;-66
2021/06/22 02:18:02;;;;;;;;;0.50;0.50;;;;;19.42;67.21;100702.94;4974002;28;45743;-67
2021/06/22 02:20:28;;;;;;;;;2.25;1.00;;;;;19.42;66.96;100711.78;4976039;28;45492;-67
2021/06/22 02:22:53;;;;;;;;;3.00;2.00;;;;;19.42;66.74;100709.13;4974248;28;45628;-66
2021/06/22 02:25:19;;;;;;;;;3.00;1.50;;;;;19.40;66.92;100699.53;4974194;28;45551;-66
2021/06/22 02:27:46;;;;;;;;;1.75;1.00;;;;;19.45;67.19;100708.88;4975461;28;45495;-66
2021/06/22 02:30:17;;;;;;;;;1.25;1.25;;;;;19.45;67.40;100703.53;4974785;28;45462;-66
2021/06/22 02:32:43;;;;;;;;;1.00;1.00;;;;;19.45;66.78;100700.03;4973739;28;45563;-66
2021/06/22 02:35:11;;;;;;;;;1.25;1.25;;;;;19.50;67.45;100706.69;4974400;28;45515;-70
2021/06/22 02:37:38;;;;;;;;;0.50;0.50;;;;;19.48;67.42;100695.31;4970738;28;45721;-66
2021/06/22 02:40:05;;;;;;;;;1.25;0.50;;;;;19.45;67.17;100700.03;4972002;28;45817;-66
2021/06/22 02:42:30;;;;;;;;;1.75;1.50;;;;;19.44;68.01;100701.84;4973555;28;45589;-66
2021/06/22 02:44:56;;;;;;;;;1.25;1.25;;;;;19.48;68.15;100711.31;4973664;28;47348;-66
2021/06/22 02:47:21;;;;;;;;;1.00;1.00;;;;;19.49;68.20;100715.66;4975268;28;45335;-66
2021/06/22 02:49:46;;;;;;;;;0.75;0.75;;;;;19.46;68.21;100712.38;4974422;28;45499;-66
2021/06/22 02:52:12;;;;;;;;;3.50;2.25;;;;;19.46;67.84;100713.22;4974077;28;45791;-66
2021/06/22 02:54:38;;;;;;;;;3.00;1.75;;;;;19.46;68.32;100715.88;4973261;28;46083;-66
2021/06/22 02:57:10;;;;;;;;;2.25;2.25;;;;;19.47;68.60;100716.72;4973563;28;45995;-66
2021/06/22 02:59:37;;;;;;;;;0.75;0.50;;;;;19.43;68.03;100715.31;4975002;28;45439;-66
2021/06/22 03:02:04;;;;;;;;;4.00;2.50;;;;;19.44;67.91;100717.84;4973389;28;45420;-67
2021/06/22 03:04:30;;;;;;;;;1.75;1.75;;;;;19.43;68.29;100713.47;4972128;28;46323;-66
2021/06/22 03:06:56;;;;;;;;;4.00;2.00;;;;;19.42;67.85;100722.47;4973789;28;45563;-66
2021/06/22 03:09:22;;;;;;;;;2.00;2.00;;;;;19.27;68.60;100700.53;4973900;28;45563;-67
2021/06/22 03:11:49;;;;;;;;;3.50;2.00;;;;;19.40;68.40;100724.38;4972530;28;46619;-66
2021/06/22 03:14:15;;;;;;;;;3.75;1.50;;;;;19.37;68.39;100726.44;4973752;28;45512;-66
2021/06/22 03:16:40;;;;;;;;;2.00;2.00;;;;;19.34;68.25;100719.53;4973208;28;45356;-67
2021/06/22 03:19:05;;;;;;;;;2.25;2.25;;;;;19.32;68.78;100710.00;4973777;28;45582;-66
2021/06/22 03:21:31;;;;;;;;;4.00;3.75;;;;;19.28;68.51;100712.88;4973172;28;46115;-67
2021/06/22 03:23:56;;;;;;;;;4.25;2.25;;;;;19.15;69.04;100692.66;4971745;28;46216;-67
2021/06/22 03:26:22;;;;;;;;;3.75;3.25;;;;;19.18;68.69;100706.59;4975066;28;46880;-67
2021/06/22 03:28:48;;;;;;;;;6.00;4.25;;;;;19.21;69.41;100711.69;4973608;28;45588;-66
2021/06/22 03:31:13;;;;;;;;;6.25;5.25;;;;;19.21;69.16;100714.34;4972518;28;45647;-67
2021/06/22 03:33:38;;;;;;;;;6.25;5.50;;;;;19.22;69.74;100715.22;4972655;28;46372;-66
2021/06/22 03:36:04;;;;;;;;;6.50;4.50;;;;;19.24;69.43;100719.44;4973127;28;45597;-66
2021/06/22 03:38:30;;;;;;;;;7.50;5.00;;;;;19.28;69.43;100720.03;4974154;28;45530;-67
2021/06/22 03:40:56;;;;;;;;;7.75;5.50;;;;;19.22;69.47;100700.06;4987826;28;45621;-67
2021/06/22 03:43:22;;;;;;;;;4.25;4.25;;;;;19.31;69.73;100703.78;4973643;28;46699;-66
2021/06/22 03:45:47;;;;;;;;;8.50;4.75;;;;;19.33;69.72;100712.53;4974018;28;45565;-67
2021/06/22 03:48:13;;;;;;;;;5.00;5.00;;;;;19.34;70.23;100716.03;4973410;28;45402;-67
2021/06/22 03:50:38;;;;;;;;;7.25;6.25;;;;;19.34;70.35;100711.56;4974021;28;45597;-67
2021/06/22 03:53:04;;;;;;;;;6.50;5.00;;;;;19.34;70.00;100722.22;4973377;28;46070;-67
2021/06/22 03:55:29;;;;;;;;;6.00;6.00;;;;;19.31;70.17;100733.09;4987692;28;45522;-67
2021/06/22 03:57:57;;;;;;;;;5.25;5.00;;;;;19.26;70.43;100720.16;4973000;28;45399;-67
2021/06/22 04:00:23;;;;;;;;;6.00;6.00;;;;;19.28;70.38;100739.53;4972673;28;45399;-67
2021/06/22 04:02:49;;;;;;;;;6.50;5.50;;;;;19.32;69.93;100747.31;4972978;28;46343;-67
2021/06/22 04:05:15;;;;;;;;;5.25;5.25;;;;;19.28;70.46;100749.34;4975907;28;45876;-67
2021/06/22 04:07:41;;;;;;;;;5.00;3.50;;;;;19.24;70.50;100740.75;4976334;28;45555;-66
2021/06/22 04:10:07;;;;;;;;;7.25;5.50;;;;;19.26;70.32;100746.81;4975907;28;45348;-67
2021/06/22 04:12:33;;;;;;;;;6.25;6.25;;;;;19.32;70.83;100753.47;4975904;28;46908;-66
2021/06/22 04:14:59;;;;;;;;;8.00;6.50;;;;;19.34;70.99;100761.34;4975996;28;45734;-67
2021/06/22 04:17:24;;;;;;;;;6.25;5.25;;;;;19.38;70.53;100768.13;4978237;28;45396;-67
2021/06/22 04:19:49;;;;;;;;;4.50;4.50;;;;;19.41;70.58;100770.53;4979179;28;45452;-66
2021/06/22 04:22:15;;;;;;;;;6.00;5.00;;;;;19.42;70.36;100764.22;4981421;28;46486;-67
2021/06/22 04:24:40;;;;;;;;;6.00;5.00;;;;;19.47;70.45;100767.38;4976483;28;45605;-67
2021/06/22 04:27:06;;;;;;;;;4.75;4.75;;;;;19.52;70.47;100773.19;4976211;28;46655;-67
2021/06/22 04:29:31;;;;;;;;;5.50;3.50;;;;;19.56;70.14;100770.16;4977146;28;45458;-67
2021/06/22 04:31:57;;;;;;;;;3.25;3.25;;;;;19.61;69.89;100764.50;4975189;28;46737;-66
2021/06/22 04:34:22;;;;;;;;;5.25;4.00;;;;;19.62;69.82;100755.50;4975585;28;45476;-66
2021/06/22 04:36:48;;;;;;;;;4.50;4.00;;;;;19.66;69.43;100753.47;4975180;28;45347;-66
2021/06/22 04:39:13;;;;;;;;;4.00;4.00;;;;;19.67;69.87;100758.66;4975237;28;45509;-66
2021/06/22 04:41:38;;;;;;;;;5.25;3.50;;;;;19.65;69.74;100760.63;4976137;28;45370;-67
2021/06/22 04:44:04;;;;;;;;;5.50;4.00;;;;;19.63;69.73;100751.91;4976389;28;46021;-66
2021/06/22 04:46:30;;;;;;;;;3.25;3.25;;;;;19.60;69.16;100754.81;4975724;28;45480;-67
2021/06/22 04:48:55;;;;;;;;;3.00;3.00;;;;;19.63;69.32;100767.91;4975646;28;45781;-66
2021/06/22 04:51:21;;;;;;;;;3.75;3.75;;;;;19.64;69.31;100763.41;4976323;28;46558;-66
2021/06/22 04:53:46;;;;;;;;;4.50;3.50;;;;;19.60;69.93;100756.63;4975940;28;45558;-67
2021/06/22 04:56:13;;;;;;;;;4.00;4.00;;;;;19.62;69.42;100768.84;4976905;28;45428;-67
2021/06/22 04:58:39;;;;;;;;;4.00;4.00;;;;;19.62;69.67;100781.34;4976596;28;45445;-67
2021/06/22 05:01:05;;;;;;;;;6.00;4.25;;;;;19.61;70.13;100771.66;4974274;28;46241;-66
2021/06/22 05:03:32;;;;;;;;;7.25;7.00;;;;;19.64;70.29;100774.06;4975672;28;45493;-66
2021/06/22 05:05:58;;;;;;;;;5.50;5.50;;;;;19.63;70.49;100757.22;4975675;28;45365;-66
2021/06/22 05:08:23;;;;;;;;;11.25;6.75;;;;;19.68;70.71;100771.03;4976648;28;45317;-67
2021/06/22 05:10:49;;;;;;;;;7.00;7.00;;;;;19.73;70.38;100766.19;4974364;28;46152;-67
2021/06/22 05:13:14;;;;;;;;;8.00;8.00;;;;;19.74;70.43;100762.53;4974463;28;45345;-67
2021/06/22 05:15:39;;;;;;;;;7.75;7.75;;;;;19.72;70.99;100752.97;4973746;28;45489;-66
2021/06/22 05:18:05;;;;;;;;;9.00;8.75;;;;;19.81;71.25;100770.88;4975357;28;45454;-66
2021/06/22 05:20:30;;;;;;;;;10.50;9.75;;;;;19.79;70.88;100772.84;4976086;28;45472;-66
2021/06/22 05:22:56;;;;;;;;;13.75;9.50;;;;;19.79;71.40;100767.50;4975288;28;45701;-67
2021/06/22 05:25:21;;;;;;;;;12.75;11.00;;;;;19.81;71.53;100777.06;4974829;28;45559;-67
2021/06/22 05:27:46;;;;;;;;;10.50;8.25;;;;;19.77;71.57;100769.44;4974507;28;45328;-66
2021/06/22 05:30:12;;;;;;;;;9.25;8.50;;;;;19.80;71.71;100782.53;4974616;28;46707;-66
2021/06/22 05:32:38;;;;;;;;;12.25;9.50;;;;;19.79;70.80;100783.50;4975617;28;45935;-67
2021/06/22 05:35:03;;;;;;;;;11.75;10.75;;;;;19.74;71.52;100783.88;4975148;28;45395;-67
2021/06/22 05:37:29;;;;;;;;;12.00;10.00;;;;;19.70;71.64;100778.91;4974361;28;45466;-67
2021/06/22 05:39:54;;;;;;;;;13.50;10.75;;;;;19.71;71.90;100784.09;4971912;28;49465;-66
2021/06/22 05:42:19;;;;;;;;;10.75;10.25;;;;;19.67;71.95;100763.16;4973081;28;45623;-66
2021/06/22 05:44:45;;;;;;;;;11.25;10.25;;;;;19.74;72.24;100783.03;4974861;28;45265;-67
2021/06/22 05:47:10;;;;;;;;;10.25;10.25;;;;;19.77;72.50;100790.75;4976003;28;45547;-67
2021/06/22 05:49:36;;;;;;;;;10.75;9.00;;;;;19.76;71.59;100784.59;4974120;28;45848;-66
2021/06/22 05:52:03;;;;;;;;;9.50;9.50;;;;;19.74;71.78;100786.53;4974200;28;45566;-66
2021/06/22 05:54:28;;;;;;;;;8.50;7.75;;;;;19.85;72.07;100793.69;4974037;28;45633;-67
2021/06/22 05:56:53;;;;;;;;;8.00;8.00;;;;;19.90;72.01;100791.47;4975296;28;45423;-66
2021/06/22 05:59:19;;;;;;;;;10.50;9.75;;;;;19.96;71.75;100793.66;4975502;28;45628;-67
2021/06/22 06:01:44;;;;;;;;;8.50;8.50;;;;;19.98;72.23;100786.34;4974069;28;45542;-66
2021/06/22 06:04:09;;;;;;;;;10.75;10.75;;;;;20.08;71.76;100797.13;4974067;28;45412;-66
2021/06/22 06:06:34;;;;;;;;;14.00;11.75;;;;;20.11;71.46;100793.38;4975306;28;45463;-66
2021/06/22 06:09:00;;;;;;;;;13.25;12.00;;;;;20.12;71.96;100805.75;4973145;28;48132;-66
2021/06/22 06:11:25;;;;;;;;;12.25;11.00;;;;;20.14;71.88;100811.78;4973902;28;46653;-66
2021/06/22 06:13:50;;;;;;;;;13.50;12.25;;;;;20.19;71.54;100809.59;4974521;28;45451;-66
2021/06/22 06:16:16;;;;;;;;;11.00;11.00;;;;;20.18;71.83;100811.41;4974210;28;48538;-67
2021/06/22 06:18:41;;;;;;;;;13.75;12.00;;;;;20.21;71.58;100815.66;4972699;28;46162;-66
2021/06/22 06:21:06;;;;;;;;;12.75;11.50;;;;;20.23;71.55;100822.56;4974559;28;45574;-66
2021/06/22 06:23:37;;;;;;;;;12.00;11.50;;;;;20.24;71.90;100823.41;4975680;28;45483;-66
2021/06/22 06:26:03;;;;;;;;;11.50;11.00;;;;;20.26;72.15;100826.81;4975702;28;45404;-66
2021/06/22 06:28:35;;;;;;;;;15.00;13.00;;;;;20.28;71.88;100824.84;4973401;28;45530;-66
2021/06/22 06:31:00;;;;;;;;;12.50;11.00;;;;;20.26;71.65;100819.66;4974593;28;45756;-66
2021/06/22 06:33:26;;;;;;;;;13.75;11.00;;;;;20.27;71.41;100820.50;4974931;28;45643;-66
2021/06/22 06:35:54;;;;;;;;;13.25;10.75;;;;;20.26;71.29;100830.31;4975304;28;45612;-66
2021/06/22 06:38:20;;;;;;;;;12.50;10.50;;;;;20.18;71.71;100816.75;4974817;28;45511;-66
2021/06/22 06:40:46;;;;;;;;;13.00;11.50;;;;;20.26;71.68;100824.97;4974376;28;45442;-66
2021/06/22 06:43:11;;;;;;;;;14.00;11.00;;;;;20.25;71.67;100817.94;4974384;28;45394;-66
2021/06/22 06:45:36;;;;;;;;;11.00;11.00;;;;;20.29;71.76;100823.88;4965871;28;45269;-66
2021/06/22 06:48:03;;;;;;;;;11.75;11.75;;;;;20.33;71.74;100825.31;4974435;28;45494;-67
2021/06/22 06:50:28;;;;;;;;;12.75;12.50;;;;;20.34;71.71;100824.34;4972968;28;47601;-67
2021/06/22 06:52:54;;;;;;;;;12.00;11.25;;;;;20.40;71.52;100829.16;4978363;28;45438;-66
2021/06/22 06:55:28;;;;;;;;;15.50;11.00;;;;;20.44;71.99;100835.94;4972036;28;45475;-66
2021/06/22 06:58:02;;;;;;;;;11.50;11.25;;;;;20.48;71.63;100848.09;4972792;28;45432;-66
2021/06/22 07:00:33;;;;;;;;;11.75;9.75;;;;;20.50;71.39;100846.16;4973577;28;45307;-66
2021/06/22 07:02:59;;;;;;;;;13.00;10.25;;;;;20.51;71.40;100849.66;4988891;28;45526;-66
2021/06/22 07:05:25;;;;;;;;;15.00;10.25;;;;;20.57;71.43;100851.84;4972234;28;45582;-66
2021/06/22 07:07:51;;;;;;;;;14.75;12.00;;;;;20.58;71.06;100851.72;4974615;28;46258;-66
2021/06/22 07:10:16;;;;;;;;;12.25;11.50;;;;;20.59;71.20;100848.06;4970510;28;47411;-67
2021/06/22 07:12:43;;;;;;;;;12.00;11.00;;;;;20.56;71.29;100853.66;4971979;28;45702;-67
2021/06/22 07:15:09;;;;;;;;;56.25;44.75;;;;;20.55;71.84;100853.78;4972648;28;45465;-67
2021/06/22 07:17:35;;;;;;;;;13.25;13.25;;;;;20.54;71.70;100850.25;4973606;28;45945;-67
2021/06/22 07:20:00;;;;;;;;;14.25;11.25;;;;;20.52;71.26;100854.06;4970636;28;46441;-67
2021/06/22 07:22:26;;;;;;;;;13.25;10.50;;;;;20.47;71.62;100856.25;4971215;28;45434;-69
2021/06/22 07:24:51;;;;;;;;;17.75;13.00;;;;;20.44;71.85;100851.97;4971259;28;45457;-68
2021/06/22 07:27:17;;;;;;;;;12.25;12.00;;;;;20.45;72.00;100850.16;4972481;28;45574;-68
2021/06/22 07:29:42;;;;;;;;;10.50;10.50;;;;;20.46;72.00;100860.72;4973071;28;45844;-69
2021/06/22 07:32:08;;;;;;;;;17.75;16.50;;;;;20.46;71.76;100860.72;4974530;28;47004;-69
2021/06/22 07:34:35;;;;;;;;;18.75;15.75;;;;;20.44;72.39;100859.97;4973449;28;45503;-70
2021/06/22 07:37:00;;;;;;;;;20.75;18.75;;;;;20.42;72.00;100861.94;4974943;28;46158;-69
2021/06/22 07:39:25;;;;;;;;;21.75;15.50;;;;;20.33;72.09;100854.69;4973759;28;45495;-69
2021/06/22 07:41:51;;;;;;;;;23.50;21.75;;;;;20.28;72.52;100856.88;4976608;28;45529;-68
2021/06/22 07:44:16;;;;;;;;;28.00;27.25;;;;;20.25;72.51;100851.78;4977291;28;45368;-68
2021/06/22 07:46:41;;;;;;;;;136.67;122.67;;;;;20.20;73.10;100846.84;4977609;28;45647;-68
2021/06/22 07:49:07;;;;;;;;;30.00;27.75;;;;;20.18;72.46;100853.25;4973519;28;45489;-68
2021/06/22 07:51:32;;;;;;;;;35.00;31.00;;;;;20.13;72.78;100853.63;4972940;28;45758;-68
2021/06/22 07:53:58;;;;;;;;;35.50;29.50;;;;;20.08;73.32;100853.16;4975366;28;45421;-68
2021/06/22 07:56:24;;;;;;;;;32.25;30.25;;;;;20.02;72.35;100853.66;4983701;28;46161;-67
2021/06/22 07:58:50;;;;;;;;;33.75;30.50;;;;;19.94;73.43;100853.41;4976337;28;45713;-67
2021/06/22 08:01:16;;;;;;;;;34.50;31.50;;;;;19.89;73.67;100859.13;4974870;28;45534;-68
2021/06/22 08:03:42;;;;;;;;;32.25;29.75;;;;;19.84;73.41;100856.00;4973546;28;45411;-69
2021/06/22 08:06:07;;;;;;;;;37.50;30.75;;;;;19.79;73.86;100867.03;4974009;28;45551;-68
2021/06/22 08:08:32;;;;;;;;;32.25;28.25;;;;;19.83;73.33;100875.59;4973779;28;45485;-68
2021/06/22 08:10:58;;;;;;;;;35.00;28.25;;;;;19.83;74.25;100880.94;4974390;28;45444;-69
2021/06/22 08:13:24;;;;;;;;;32.00;29.75;;;;;19.86;73.94;100879.88;4973977;28;45359;-69
2021/06/22 08:15:50;;;;;;;;;26.25;23.00;;;;;19.89;73.21;100888.47;4973864;28;46576;-69
2021/06/22 08:18:16;;;;;;;;;23.25;22.25;;;;;19.88;73.60;100872.56;4971755;28;45558;-69
2021/06/22 08:20:43;;;;;;;;;28.25;23.50;;;;;19.92;74.03;100890.88;4970574;28;45650;-69
2021/06/22 08:23:09;;;;;;;;;26.00;22.00;;;;;19.95;73.10;100879.97;4973057;28;45509;-69
2021/06/22 08:25:35;;;;;;;;;20.00;18.00;;;;;19.96;74.16;100872.81;4973049;28;46263;-70
2021/06/22 08:28:01;;;;;;;;;25.25;21.25;;;;;20.02;73.82;100883.00;4973034;28;45686;-69
2021/06/22 08:30:27;;;;;;;;;23.50;21.25;;;;;20.02;73.90;100885.66;4974591;28;45856;-69
2021/06/22 08:32:53;;;;;;;;;23.25;20.75;;;;;20.05;73.28;100883.63;4973733;28;45459;-70
2021/06/22 08:35:18;;;;;;;;;27.75;25.25;;;;;20.11;73.47;100894.75;4972546;28;45539;-68
2021/06/22 08:37:44;;;;;;;;;23.75;21.75;;;;;20.22;74.28;100884.91;4971801;28;45650;-69
2021/06/22 08:40:11;;;;;;;;;25.50;21.75;;;;;20.42;74.36;100883.28;4973786;28;45691;-68
2021/06/22 08:42:39;;;;;;;;;22.25;20.50;;;;;20.62;73.82;100884.38;4973358;28;48103;-69
2021/06/22 08:45:09;;;;;;;;;27.00;19.75;;;;;20.79;73.43;100882.94;4964593;28;46215;-68
2021/06/22 08:47:35;;;;;;;;;26.50;21.00;;;;;21.06;72.76;100898.47;4972211;28;45816;-68
2021/06/22 08:50:00;;;;;;;;;21.00;20.25;;;;;21.32;72.56;100893.63;4974825;28;45517;-69
2021/06/22 08:52:30;;;;;;;;;22.50;20.25;;;;;21.59;71.84;100885.03;4972621;28;45734;-68
2021/06/22 08:54:56;;;;;;;;;26.50;23.75;;;;;21.77;71.26;100893.28;4973043;28;46187;-69
2021/06/22 08:57:22;;;;;;;;;25.50;17.75;;;;;21.92;71.37;100885.75;4973026;28;45720;-68
2021/06/22 08:59:49;;;;;;;;;22.00;19.50;;;;;22.26;70.15;100889.81;4973431;28;45669;-67
2021/06/22 09:02:16;;;;;;;;;21.00;19.25;;;;;22.74;70.00;100888.19;4972369;28;45636;-68
2021/06/22 09:04:41;;;;;;;;;22.50;18.50;;;;;24.51;69.43;100891.91;4973381;28;45654;-68
2021/06/22 09:07:07;;;;;;;;;81.75;70.50;;;;;27.17;66.51;100880.97;4971293;28;45801;-68
2021/06/22 09:09:34;;;;;;;;;20.75;17.25;;;;;30.81;61.37;100880.19;4981165;28;45544;-67
2021/06/22 09:12:25;;;;;;;;;18.00;15.50;;;;;34.84;52.57;100878.97;4962368;28;45506;-68
2021/06/22 09:14:51;;;;;;;;;22.25;18.00;;;;;37.24;49.14;100888.66;4973964;28;46646;-69
2021/06/22 09:17:16;;;;;;;;;21.75;20.25;;;;;38.78;43.27;100883.34;4975917;28;45443;-68
2021/06/22 09:19:50;;;;;;;;;22.25;19.75;;;;;37.23;43.28;100896.06;4977953;28;45417;-68
2021/06/22 09:22:18;;;;;;;;;19.75;19.75;;;;;35.20;42.38;100894.69;4980382;28;45368;-68
2021/06/22 09:25:11;;;;;;;;;20.00;16.00;;;;;33.09;44.13;100907.25;4985241;28;45533;-69
2021/06/22 09:27:54;;;;;;;;;19.25;18.50;;;;;31.26;45.42;100908.78;4976800;28;45553;-69
2021/06/22 09:30:38;;;;;;;;;20.75;16.50;;;;;29.71;47.82;100919.09;4975417;28;45571;-68
2021/06/22 09:33:20;;;;;;;;;22.00;18.75;;;;;28.56;49.63;100919.19;4979714;28;45369;-68
2021/06/22 09:35:47;;;;;;;;;18.75;16.00;;;;;27.76;50.09;100916.63;4976918;28;46335;-68
2021/06/22 09:38:13;;;;;;;;;20.75;19.50;;;;;27.08;51.29;100922.44;4981134;28;45885;-68
2021/06/22 09:40:39;;;;;;;;;19.50;18.50;;;;;26.51;52.51;100922.34;4979502;28;45436;-68
2021/06/22 09:43:04;;;;;;;;;17.00;17.00;;;;;25.91;53.02;100917.06;4976739;28;45472;-68
2021/06/22 09:45:31;;;;;;;;;23.50;20.75;;;;;25.33;54.43;100917.72;4975873;28;45718;-68
2021/06/22 09:48:00;;;;;;;;;24.00;21.25;;;;;24.88;55.09;100908.72;4974411;28;45394;-68
2021/06/22 09:50:40;;;;;;;;;22.00;20.00;;;;;24.47;56.05;100920.91;4976301;28;45491;-68
2021/06/22 09:53:24;;;;;;;;;19.75;18.00;;;;;24.15;56.93;100930.25;4975550;28;45799;-68
2021/06/22 09:55:49;;;;;;;;;20.00;17.75;;;;;23.85;57.92;100927.84;4974391;28;45774;-67
2021/06/22 09:58:15;;;;;;;;;21.25;18.50;;;;;23.69;58.43;100923.09;4974305;28;45507;-68
2021/06/22 10:00:40;;;;;;;;;23.75;21.75;;;;;23.52;59.09;100930.03;4974363;28;45526;-67
2021/06/22 10:03:06;;;;;;;;;20.25;17.00;;;;;23.26;59.90;100926.28;4973180;28;45396;-68
2021/06/22 10:05:48;;;;;;;;;19.50;17.75;;;;;22.96;60.52;100933.50;4973094;28;45788;-68
2021/06/22 10:08:14;;;;;;;;;19.50;16.50;;;;;22.72;60.61;100933.03;4973255;28;45453;-69
2021/06/22 10:10:41;;;;;;;;;23.25;19.50;;;;;22.51;62.09;100923.28;4972280;28;45344;-67
2021/06/22 10:13:07;;;;;;;;;24.00;19.50;;;;;22.39;63.32;100941.31;4972556;28;45585;-69
2021/06/22 10:15:32;;;;;;;;;25.25;18.50;;;;;22.19;62.96;100946.75;4966033;28;46317;-70
2021/06/22 10:17:59;;;;;;;;;25.00;22.00;;;;;21.85;66.77;100941.63;4974354;28;45426;-68
2021/06/22 10:20:24;;;;;;;;;29.25;22.50;;;;;21.48;68.55;100944.81;4975090;28;45466;-69
2021/06/22 10:22:50;;;;;;;;;23.00;20.50;;;;;21.16;66.96;100938.66;4974013;28;45740;-70
2021/06/22 10:25:17;;;;;;;;;18.00;17.25;;;;;20.98;69.93;100952.53;4974874;28;45536;-68
2021/06/22 10:27:43;;;;;;;;;25.50;20.25;;;;;20.93;68.50;100948.56;4973656;28;45878;-68
2021/06/22 10:30:10;;;;;;;;;27.75;22.50;;;;;20.86;69.37;100932.22;4975194;28;45641;-68
2021/06/22 10:32:37;;;;;;;;;26.00;22.50;;;;;20.93;71.07;100949.41;4974096;28;45585;-68
2021/06/22 10:35:13;;;;;;;;;24.00;22.50;;;;;21.00;69.76;100947.09;4974010;28;46599;-69
2021/06/22 10:37:47;;;;;;;;;27.00;22.75;;;;;20.93;69.31;100959.25;4969706;28;45725;-68
2021/06/22 10:40:24;;;;;;;;;26.50;20.75;;;;;20.85;70.03;100962.56;4968616;28;45898;-68
2021/06/22 10:42:58;;;;;;;;;26.25;22.00;;;;;20.83;69.71;100969.88;4974237;28;45494;-69
2021/06/22 10:45:24;;;;;;;;;32.25;24.75;;;;;20.83;70.20;100973.41;4974205;28;46330;-68
2021/06/22 10:47:50;;;;;;;;;22.75;21.75;;;;;20.80;70.72;100968.28;4975367;28;46423;-69
2021/06/22 10:50:21;;;;;;;;;23.25;18.50;;;;;20.77;69.61;100983.72;4975780;28;45292;-69
2021/06/22 10:52:50;;;;;;;;;22.25;19.50;;;;;20.69;69.71;100973.66;4974540;28;45454;-69
2021/06/22 10:55:43;;;;;;;;;22.00;15.75;;;;;20.61;69.43;100973.44;4974870;28;46209;-69
2021/06/22 10:58:14;;;;;;;;;24.75;17.75;;;;;20.43;69.05;100999.78;4966747;28;45602;-68
2021/06/22 11:00:43;;;;;;;;;15.50;15.50;;;;;20.30;70.96;101010.56;4973738;28;45434;-68
2021/06/22 11:03:18;;;;;;;;;17.25;14.50;;;;;20.15;71.43;101016.25;4960266;28;45515;-69
2021/06/22 11:05:44;;;;;;;;;18.75;17.75;;;;;19.99;71.72;101022.81;4974740;28;46821;-68
2021/06/22 11:08:12;;;;;;;;;18.25;17.75;;;;;19.77;76.09;101026.28;4974704;28;45480;-70
2021/06/22 11:10:47;;;;;;;;;20.25;15.75;;;;;19.47;74.25;101031.25;4975107;28;45696;-70
2021/06/22 11:13:35;;;;;;;;;19.75;18.00;;;;;19.27;75.70;101033.63;4974146;28;45340;-71
2021/06/22 11:16:05;;;;;;;;;18.00;17.00;;;;;19.12;75.51;101024.09;4963208;28;45590;-69